createdAt,value
2019-03-25T00:01:17.766Z,101251.89
2019-03-25T00:03:46.518Z,101253.09
2019-03-25T00:06:15.206Z,101254.05
2019-03-25T00:08:44.025Z,101257.80
2019-03-25T00:11:12.539Z,101252.73
2019-03-25T00:13:41.093Z,101255.38
2019-03-25T00:16:09.634Z,101251.16
2019-03-25T00:18:38.191Z,101251.66
2019-03-25T00:21:06.807Z,101245.28
2019-03-25T00:23:35.430Z,101246.02
2019-03-25T00:26:04.072Z,101248.77
2019-03-25T00:28:32.588Z,101242.74
2019-03-25T00:31:01.213Z,101246.13
2019-03-25T00:33:30.123Z,101249.46
2019-03-25T00:35:58.959Z,101249.61
2019-03-25T00:38:27.400Z,101235.91
2019-03-25T00:40:56.024Z,101246.59
2019-03-25T00:43:24.582Z,101236.47
2019-03-25T00:45:53.138Z,101233.44
2019-03-25T00:48:21.837Z,101236.27
2019-03-25T00:50:50.350Z,101225.33
2019-03-25T00:53:18.910Z,101227.61
2019-03-25T00:55:47.443Z,101226.17
2019-03-25T00:58:15.973Z,101225.80
2019-03-25T01:00:44.683Z,101226.76
2019-03-25T01:03:13.452Z,101229.34
2019-03-25T01:05:42.154Z,101221.20
2019-03-25T01:08:10.922Z,101215.09
2019-03-25T01:10:39.843Z,101220.15
2019-03-25T01:13:08.462Z,101216.18
2019-03-25T01:15:37.151Z,101213.21
2019-03-25T01:18:16.146Z,101208.88
2019-03-25T01:20:35.825Z,101211.27
2019-03-25T01:23:04.469Z,101211.47
2019-03-25T01:25:33.110Z,101217.35
2019-03-25T01:28:01.770Z,101220.70
2019-03-25T01:30:30.426Z,101223.17
2019-03-25T01:32:59.129Z,101220.41
2019-03-25T01:35:27.833Z,101227.27
2019-03-25T01:37:56.392Z,101225.30
2019-03-25T01:40:25.306Z,101227.48
2019-03-25T01:42:53.937Z,101223.34
2019-03-25T01:45:22.543Z,101215.92
2019-03-25T01:47:51.268Z,101215.42
2019-03-25T01:50:19.893Z,101214.39
2019-03-25T01:52:48.487Z,101214.73
2019-03-25T01:55:17.310Z,101211.01
2019-03-25T01:57:45.959Z,101202.23
2019-03-25T02:00:14.929Z,101202.81
2019-03-25T02:02:43.377Z,101191.09
2019-03-25T02:05:12.062Z,101197.33
2019-03-25T02:07:40.616Z,101197.30
2019-03-25T02:10:10.326Z,101196.37
2019-03-25T02:12:38.871Z,101189.72
2019-03-25T02:15:07.782Z,101193.39
2019-03-25T02:17:36.375Z,101192.78
2019-03-25T02:20:06.719Z,101189.80
2019-03-25T02:22:35.227Z,101189.00
2019-03-25T02:25:06.027Z,101188.09
2019-03-25T02:27:34.717Z,101184.77
2019-03-25T02:30:04.520Z,101184.34
2019-03-25T02:32:32.993Z,101186.69
2019-03-25T02:35:01.529Z,101184.50
2019-03-25T02:37:30.389Z,101180.25
2019-03-25T02:39:59.050Z,101173.92
2019-03-25T02:42:27.767Z,101178.27
2019-03-25T02:44:56.602Z,101171.28
2019-03-25T02:47:25.286Z,101168.01
2019-03-25T02:49:54.004Z,101184.12
2019-03-25T02:52:22.658Z,101177.06
2019-03-25T02:54:51.396Z,101174.59
2019-03-25T02:57:20.035Z,101166.52
2019-03-25T02:59:48.662Z,101168.63
2019-03-25T03:02:17.483Z,101165.15
2019-03-25T03:04:46.211Z,101169.37
2019-03-25T03:07:14.775Z,101164.61
2019-03-25T03:09:43.514Z,101165.72
2019-03-25T03:12:12.159Z,101164.58
2019-03-25T03:14:40.900Z,101160.05
2019-03-25T03:17:09.827Z,101158.53
2019-03-25T03:19:38.574Z,101158.16
2019-03-25T03:22:07.329Z,101155.22
2019-03-25T03:24:36.233Z,101147.07
2019-03-25T03:27:05.003Z,101144.30
2019-03-25T03:29:33.738Z,101147.81
2019-03-25T03:32:02.587Z,101138.08
2019-03-25T03:34:31.395Z,101131.70
2019-03-25T03:37:00.158Z,101132.64
2019-03-25T03:39:29.084Z,101129.88
2019-03-25T03:41:57.735Z,101134.83
2019-03-25T03:44:26.167Z,101136.55
2019-03-25T03:46:54.979Z,101133.28
2019-03-25T03:49:23.678Z,101133.72
2019-03-25T03:51:54.815Z,101134.92
2019-03-25T03:54:24.031Z,101128.40
2019-03-25T03:56:55.663Z,101128.70
2019-03-25T03:59:25.588Z,101127.55
2019-03-25T04:01:54.186Z,101130.10
2019-03-25T04:04:22.974Z,101127.31
2019-03-25T04:06:51.736Z,101127.73
2019-03-25T04:09:20.528Z,101120.59
2019-03-25T04:11:49.324Z,101117.08
2019-03-25T04:14:18.103Z,101110.65
2019-03-25T04:16:46.918Z,101115.56
2019-03-25T04:19:15.771Z,101113.46
2019-03-25T04:21:44.495Z,101117.49
2019-03-25T04:24:13.283Z,101117.84
2019-03-25T04:26:42.159Z,101109.84
2019-03-25T04:29:11.142Z,101112.91
2019-03-25T04:31:39.768Z,101113.26
2019-03-25T04:34:08.533Z,101107.89
2019-03-25T04:36:36.899Z,101110.25
2019-03-25T04:39:07.987Z,101117.34
2019-03-25T04:41:36.801Z,101114.52
2019-03-25T04:44:05.545Z,101110.05
2019-03-25T04:46:35.549Z,101100.94
2019-03-25T04:49:03.949Z,101101.87
2019-03-25T04:51:32.823Z,101101.73
2019-03-25T04:54:01.649Z,101103.27
2019-03-25T04:56:39.027Z,101103.50
2019-03-25T04:59:00.816Z,101102.42
2019-03-25T05:01:29.599Z,101098.98
2019-03-25T05:03:58.081Z,101086.75
2019-03-25T05:06:26.906Z,101080.03
2019-03-25T05:08:55.367Z,101078.23
2019-03-25T05:11:30.485Z,101084.30
2019-03-25T05:13:54.615Z,101080.92
2019-03-25T05:16:23.474Z,101083.38
2019-03-25T05:18:52.336Z,101078.46
2019-03-25T05:21:21.871Z,101079.92
2019-03-25T05:23:50.671Z,101075.46
2019-03-25T05:26:19.465Z,101073.28
2019-03-25T05:28:48.220Z,101080.23
2019-03-25T05:31:16.968Z,101069.91
2019-03-25T05:33:45.824Z,101069.09
2019-03-25T05:36:14.656Z,101075.49
2019-03-25T05:38:43.391Z,101072.22
2019-03-25T05:41:12.179Z,101070.39
2019-03-25T05:43:41.153Z,101057.17
2019-03-25T05:46:10.147Z,101059.11
2019-03-25T05:48:38.855Z,101072.22
2019-03-25T05:51:07.616Z,101077.77
2019-03-25T05:53:36.367Z,101081.24
2019-03-25T05:56:06.025Z,101078.72
2019-03-25T05:58:34.642Z,101081.02
2019-03-25T06:01:03.493Z,101081.02
2019-03-25T06:03:31.972Z,101072.84
2019-03-25T06:06:00.661Z,101070.34
2019-03-25T06:08:29.499Z,101068.04
2019-03-25T06:10:58.289Z,101068.23
2019-03-25T06:13:27.117Z,101073.31
2019-03-25T06:15:56.100Z,101070.94
2019-03-25T06:18:24.694Z,101071.47
2019-03-25T06:20:54.953Z,101081.66
2019-03-25T06:23:23.323Z,101067.66
2019-03-25T06:25:51.970Z,101069.77
2019-03-25T06:28:20.674Z,101067.63
2019-03-25T06:30:49.501Z,101073.22
2019-03-25T06:33:18.297Z,101071.84
2019-03-25T06:35:47.107Z,101061.66
2019-03-25T06:38:15.939Z,101062.87
2019-03-25T06:40:44.675Z,101064.19
2019-03-25T06:43:13.643Z,101069.84
2019-03-25T06:45:42.300Z,101069.53
2019-03-25T06:48:11.040Z,101058.82
2019-03-25T06:50:39.827Z,101054.24
2019-03-25T06:53:08.653Z,101061.95
2019-03-25T06:55:37.409Z,101055.36
2019-03-25T06:58:06.191Z,101057.64
2019-03-25T07:00:35.019Z,101048.34
2019-03-25T07:03:03.753Z,101047.64
2019-03-25T07:05:32.652Z,101047.97
2019-03-25T07:08:01.389Z,101057.46
2019-03-25T07:10:32.779Z,101069.12
2019-03-25T07:13:02.308Z,101065.31
2019-03-25T07:15:31.135Z,101056.66
2019-03-25T07:17:59.978Z,101056.77
2019-03-25T07:20:28.709Z,101056.63
2019-03-25T07:22:57.613Z,101071.08
2019-03-25T07:25:26.273Z,101078.05
2019-03-25T07:27:55.097Z,101067.64
2019-03-25T07:30:23.919Z,101070.15
2019-03-25T07:32:52.677Z,101067.64
2019-03-25T07:35:22.435Z,101061.20
2019-03-25T07:37:51.407Z,101060.59
2019-03-25T07:40:20.085Z,101058.79
2019-03-25T07:42:49.015Z,101062.16
2019-03-25T07:45:17.721Z,101067.68
2019-03-25T07:47:46.123Z,101059.39
2019-03-25T07:50:14.830Z,101073.06
2019-03-25T07:52:43.615Z,101073.30
2019-03-25T07:55:12.449Z,101081.72
2019-03-25T07:57:48.081Z,101079.45
2019-03-25T08:00:15.058Z,101080.86
2019-03-25T08:02:43.810Z,101081.20
2019-03-25T08:05:12.898Z,101080.72
2019-03-25T08:07:41.610Z,101091.92
2019-03-25T08:10:10.448Z,101093.73
2019-03-25T08:12:39.163Z,101088.98
2019-03-25T08:15:08.289Z,101094.81
2019-03-25T08:17:36.782Z,101094.92
2019-03-25T08:20:08.247Z,101087.81
2019-03-25T08:22:36.861Z,101087.63
2019-03-25T08:25:07.298Z,101090.46
2019-03-25T08:27:36.091Z,101093.03
2019-03-25T08:30:07.727Z,101093.94
2019-03-25T08:32:36.219Z,101089.40
2019-03-25T08:35:06.927Z,101089.98
2019-03-25T08:37:35.386Z,101087.96
2019-03-25T08:40:06.209Z,101096.61
2019-03-25T08:42:34.877Z,101103.70
2019-03-25T08:45:03.680Z,101109.30
2019-03-25T08:47:32.335Z,101116.77
2019-03-25T08:50:01.201Z,101119.06
2019-03-25T08:52:30.003Z,101110.50
2019-03-25T08:54:58.805Z,101106.12
2019-03-25T08:57:27.541Z,101114.91
2019-03-25T08:59:57.705Z,101120.22
2019-03-25T09:02:26.797Z,101116.98
2019-03-25T09:04:55.251Z,101104.91
2019-03-25T09:07:23.956Z,101119.73
2019-03-25T09:09:53.153Z,101116.48
2019-03-25T09:12:22.069Z,101111.69
2019-03-25T09:14:51.016Z,101095.08
2019-03-25T09:17:19.667Z,101084.66
2019-03-25T09:19:48.440Z,101102.43
2019-03-25T09:22:17.272Z,101112.19
2019-03-25T09:24:46.105Z,101110.22
2019-03-25T09:27:14.905Z,101124.13
2019-03-25T09:29:43.654Z,101124.11
2019-03-25T09:32:12.469Z,101130.23
2019-03-25T09:34:41.565Z,101140.21
2019-03-25T09:37:10.486Z,101133.95
2019-03-25T09:39:39.474Z,101130.34
2019-03-25T09:42:08.128Z,101128.62
2019-03-25T09:44:36.944Z,101095.19
2019-03-25T09:47:05.620Z,101074.79
2019-03-25T09:49:34.682Z,101078.00
2019-03-25T09:52:03.315Z,101071.23
2019-03-25T09:54:32.177Z,101068.38
2019-03-25T09:57:01.270Z,101065.34
2019-03-25T09:59:30.287Z,101067.23
2019-03-25T10:01:58.888Z,101052.02
2019-03-25T10:04:27.311Z,101057.80
2019-03-25T10:06:55.922Z,101082.53
2019-03-25T10:09:25.023Z,101094.50
2019-03-25T10:11:53.556Z,101088.61
2019-03-25T10:14:21.968Z,101086.39
2019-03-25T10:16:50.393Z,101076.52
2019-03-25T10:19:18.895Z,101084.90
2019-03-25T10:21:47.395Z,101082.55
2019-03-25T10:24:16.253Z,101048.78
2019-03-25T10:26:44.800Z,101064.90
2019-03-25T10:29:13.357Z,101076.81
2019-03-25T10:31:41.916Z,101034.20
2019-03-25T10:34:10.403Z,101030.35
2019-03-25T10:36:38.916Z,101046.38
2019-03-25T10:39:07.786Z,101045.87
2019-03-25T10:41:38.456Z,101025.09
2019-03-25T10:44:06.902Z,101019.39
2019-03-25T10:46:35.846Z,101004.97
2019-03-25T10:49:04.565Z,101017.09
2019-03-25T10:51:33.486Z,100992.22
2019-03-25T10:54:02.328Z,101004.34
2019-03-25T10:56:30.954Z,101006.00
2019-03-25T10:58:59.488Z,101009.44
2019-03-25T11:01:27.926Z,100996.08
2019-03-25T11:03:56.509Z,100996.08
2019-03-25T11:06:25.420Z,101029.95
2019-03-25T11:08:53.946Z,101029.50
2019-03-25T11:11:22.426Z,101032.36
2019-03-25T11:13:50.849Z,101039.98
2019-03-25T11:16:19.591Z,101030.78
2019-03-25T11:18:48.002Z,101004.97
2019-03-25T11:21:16.479Z,101031.20
2019-03-25T11:23:44.943Z,101037.78
2019-03-25T11:26:13.560Z,101041.49
2019-03-25T11:28:42.131Z,101041.49
2019-03-25T11:31:10.772Z,101055.91
2019-03-25T11:33:39.405Z,101051.56
2019-03-25T11:36:08.028Z,101048.41
2019-03-25T11:38:36.607Z,101030.59
2019-03-25T11:41:05.292Z,101012.66
2019-03-25T11:43:34.280Z,101004.38
2019-03-25T11:46:02.885Z,100997.46
2019-03-25T11:48:31.337Z,100995.25
2019-03-25T11:51:00.016Z,100987.27
2019-03-25T11:53:28.569Z,101013.45
2019-03-25T11:55:57.171Z,100999.42
2019-03-25T11:58:25.891Z,101017.03
2019-03-25T12:00:54.678Z,100998.29
2019-03-25T12:03:23.483Z,101021.64
2019-03-25T12:05:52.152Z,101018.80
2019-03-25T12:08:20.752Z,101014.88
2019-03-25T12:10:49.645Z,101023.52
2019-03-25T12:13:18.048Z,101036.30
2019-03-25T12:15:46.567Z,101030.59
2019-03-25T12:18:15.936Z,101015.06
2019-03-25T12:20:44.599Z,101015.77
2019-03-25T12:23:13.506Z,101036.19
2019-03-25T12:25:42.312Z,101055.22
2019-03-25T12:28:11.037Z,101092.97
2019-03-25T12:30:39.602Z,101105.20
2019-03-25T12:33:08.224Z,101124.45
2019-03-25T12:35:36.833Z,101141.58
2019-03-25T12:38:05.542Z,101141.90
2019-03-25T12:40:34.154Z,101148.28
2019-03-25T12:43:04.143Z,101113.51
2019-03-25T12:45:32.914Z,101089.08
2019-03-25T12:48:04.032Z,101077.03
2019-03-25T12:50:32.981Z,101064.72
2019-03-25T12:53:01.512Z,101057.94
2019-03-25T12:55:30.112Z,101097.73
2019-03-25T12:57:58.721Z,101102.58
2019-03-25T13:00:36.604Z,101081.75
2019-03-25T13:03:06.130Z,101088.86
2019-03-25T13:05:34.809Z,101088.55
2019-03-25T13:08:03.496Z,101092.50
2019-03-25T13:10:31.923Z,101104.59
2019-03-25T13:13:00.547Z,101100.09
2019-03-25T13:15:29.087Z,101114.59
2019-03-25T13:17:57.604Z,101109.68
2019-03-25T13:20:26.199Z,101107.37
2019-03-25T13:22:54.858Z,101106.03
2019-03-25T13:25:23.546Z,101103.52
2019-03-25T13:27:52.100Z,101113.98
2019-03-25T13:30:20.687Z,101119.56
2019-03-25T13:32:49.268Z,101120.03
2019-03-25T13:35:18.007Z,101114.55
2019-03-25T13:37:46.586Z,101115.52
2019-03-25T13:40:15.214Z,101110.03
2019-03-25T13:42:43.814Z,101113.44
2019-03-25T13:45:12.402Z,101117.67
2019-03-25T13:47:40.994Z,101120.01
2019-03-25T13:50:09.778Z,101119.22
2019-03-25T13:52:38.268Z,101113.50
2019-03-25T13:55:07.878Z,101120.63
2019-03-25T13:57:36.452Z,101113.20
2019-03-25T14:00:06.949Z,101108.91
2019-03-25T14:02:35.384Z,101113.55
2019-03-25T14:05:05.177Z,101119.23
2019-03-25T14:07:33.636Z,101105.69
2019-03-25T14:10:02.480Z,101106.12
2019-03-25T14:12:31.503Z,101099.62
2019-03-25T14:15:00.313Z,101100.48
2019-03-25T14:17:28.707Z,101107.42
2019-03-25T14:19:57.354Z,101108.19
2019-03-25T14:22:26.207Z,101113.91
2019-03-25T14:24:54.618Z,101108.36
2019-03-25T14:27:23.380Z,101109.92
2019-03-25T14:29:51.916Z,101108.18
2019-03-25T14:32:20.515Z,101118.72
2019-03-25T14:34:49.103Z,101122.70
2019-03-25T14:37:17.674Z,101130.72
2019-03-25T14:39:46.325Z,101136.43
2019-03-25T14:42:14.954Z,101151.62
2019-03-25T14:44:43.645Z,101145.55
2019-03-25T14:47:13.016Z,101146.61
2019-03-25T14:49:41.428Z,101137.53
2019-03-25T14:52:10.448Z,101141.97
2019-03-25T14:54:40.258Z,101141.22
2019-03-25T14:57:09.250Z,101142.90
2019-03-25T14:59:38.324Z,101141.08
2019-03-25T15:02:07.396Z,101135.45
2019-03-25T15:04:35.803Z,101145.91
2019-03-25T15:07:04.339Z,101135.55
2019-03-25T15:09:32.992Z,101141.57
2019-03-25T15:12:01.589Z,101142.63
2019-03-25T15:14:30.746Z,101142.00
2019-03-25T15:16:59.229Z,101143.83
2019-03-25T15:19:27.850Z,101143.82
2019-03-25T15:21:56.723Z,101143.82
2019-03-25T15:24:25.444Z,101142.99
2019-03-25T15:26:54.150Z,101145.36
2019-03-25T15:29:22.638Z,101148.48
2019-03-25T15:31:51.201Z,101152.77
2019-03-25T15:34:19.885Z,101149.32
2019-03-25T15:36:48.544Z,101153.48
2019-03-25T15:39:17.404Z,101165.92
2019-03-25T15:41:47.252Z,101177.39
2019-03-25T15:44:16.044Z,101178.61
2019-03-25T15:46:55.162Z,101170.62
2019-03-25T15:49:15.617Z,101181.95
2019-03-25T15:51:44.538Z,101181.52
2019-03-25T15:54:13.572Z,101170.19
2019-03-25T15:56:44.163Z,101180.20
2019-03-25T15:59:12.955Z,101179.84
2019-03-25T16:01:41.949Z,101170.96
2019-03-25T16:04:10.965Z,101178.15
2019-03-25T16:06:39.916Z,101181.43
2019-03-25T16:09:09.132Z,101179.91
2019-03-25T16:11:38.150Z,101185.56
2019-03-25T16:14:06.878Z,101198.20
2019-03-25T16:16:35.848Z,101193.08
2019-03-25T16:19:04.938Z,101196.45
2019-03-25T16:21:33.857Z,101201.59
2019-03-25T16:24:02.942Z,101199.59
2019-03-25T16:26:31.818Z,101202.48
2019-03-25T16:29:00.779Z,101202.07
2019-03-25T16:31:29.202Z,101194.41
2019-03-25T16:33:58.118Z,101204.00
2019-03-25T16:36:27.057Z,101195.36
2019-03-25T16:38:55.484Z,101201.33
2019-03-25T16:41:24.395Z,101209.45
2019-03-25T16:43:53.375Z,101204.39
2019-03-25T16:46:22.556Z,101201.47
2019-03-25T16:48:51.713Z,101205.64
2019-03-25T16:51:20.755Z,101218.30
2019-03-25T16:53:49.789Z,101213.95
2019-03-25T16:56:19.007Z,101222.11
2019-03-25T16:58:47.873Z,101223.55
2019-03-25T17:01:16.885Z,101222.73
2019-03-25T17:03:45.366Z,101225.51
2019-03-25T17:06:13.925Z,101231.89
2019-03-25T17:08:42.786Z,101241.86
2019-03-25T17:11:11.364Z,101245.92
2019-03-25T17:13:40.380Z,101243.45
2019-03-25T17:16:08.884Z,101240.56
2019-03-25T17:18:37.322Z,101237.80
2019-03-25T17:21:06.113Z,101248.27
2019-03-25T17:23:34.842Z,101255.92
2019-03-25T17:26:03.580Z,101267.02
2019-03-25T17:28:32.562Z,101276.98
2019-03-25T17:31:03.153Z,101290.23
2019-03-25T17:33:31.781Z,101297.46
2019-03-25T17:36:00.288Z,101299.47
2019-03-25T17:38:28.728Z,101310.91
2019-03-25T17:40:57.274Z,101307.71
2019-03-25T17:43:25.999Z,101278.98
2019-03-25T17:45:54.405Z,101294.45
2019-03-25T17:48:23.312Z,101290.95
2019-03-25T17:50:53.032Z,101287.47
2019-03-25T17:53:21.928Z,101294.77
2019-03-25T17:55:50.853Z,101295.73
2019-03-25T17:58:19.814Z,101296.67
2019-03-25T18:00:51.544Z,101291.21
2019-03-25T18:03:20.523Z,101286.22
2019-03-25T18:05:49.294Z,101287.52
2019-03-25T18:08:18.248Z,101291.69
2019-03-25T18:10:47.220Z,101308.20
2019-03-25T18:13:22.260Z,101317.06
2019-03-25T18:15:47.140Z,101322.94
2019-03-25T18:18:16.146Z,101324.63
2019-03-25T18:20:45.326Z,101325.69
2019-03-25T18:23:14.259Z,101333.19
2019-03-25T18:25:43.247Z,101337.95
2019-03-25T18:28:12.232Z,101340.38
2019-03-25T18:30:41.220Z,101342.88
2019-03-25T18:33:10.273Z,101350.67
2019-03-25T18:35:39.662Z,101350.62
2019-03-25T18:38:08.430Z,101353.87
2019-03-25T18:40:37.312Z,101358.28
2019-03-25T18:43:06.273Z,101364.53
2019-03-25T18:45:35.244Z,101365.64
2019-03-25T18:48:04.264Z,101376.60
2019-03-25T18:50:32.814Z,101382.16
2019-03-25T18:53:01.741Z,101390.00
2019-03-25T18:55:46.717Z,101391.23
2019-03-25T18:58:15.318Z,101395.73
2019-03-25T19:00:44.152Z,101398.00
2019-03-25T19:03:12.576Z,101388.22
2019-03-25T19:05:41.073Z,101389.73
2019-03-25T19:08:10.094Z,101406.70
2019-03-25T19:10:38.987Z,101409.72
2019-03-25T19:13:07.397Z,101420.20
2019-03-25T19:15:35.864Z,101423.87
2019-03-25T19:18:04.778Z,101429.76
2019-03-25T19:20:33.215Z,101425.22
2019-03-25T19:23:02.206Z,101426.23
2019-03-25T19:25:30.800Z,101427.34
2019-03-25T19:27:59.934Z,101424.27
2019-03-25T19:30:28.359Z,101419.33
2019-03-25T19:32:57.475Z,101417.50
2019-03-25T19:35:26.533Z,101417.50
2019-03-25T19:37:54.954Z,101437.96
2019-03-25T19:40:23.380Z,101437.63
2019-03-25T19:42:52.363Z,101441.86
2019-03-25T19:45:21.386Z,101443.06
2019-03-25T19:47:49.822Z,101437.17
2019-03-25T19:50:18.987Z,101445.19
2019-03-25T19:52:47.429Z,101445.02
2019-03-25T19:55:15.876Z,101445.97
2019-03-25T19:57:44.441Z,101450.20
2019-03-25T20:00:14.451Z,101455.38
2019-03-25T20:02:42.880Z,101452.10
2019-03-25T20:05:12.094Z,101465.88
2019-03-25T20:07:41.204Z,101463.22
2019-03-25T20:10:13.767Z,101464.68
2019-03-25T20:12:42.457Z,101472.91
2019-03-25T20:15:10.967Z,101483.84
2019-03-25T20:17:39.595Z,101485.09
2019-03-25T20:20:08.303Z,101489.12
2019-03-25T20:22:38.470Z,101504.50
2019-03-25T20:25:07.596Z,101508.43
2019-03-25T20:27:36.148Z,101511.02
2019-03-25T20:30:08.237Z,101514.23
2019-03-25T20:32:36.895Z,101513.34
2019-03-25T20:35:06.327Z,101519.95
2019-03-25T20:37:34.813Z,101524.07
2019-03-25T20:40:04.600Z,101526.61
2019-03-25T20:42:33.484Z,101523.39
2019-03-25T20:45:02.547Z,101529.77
2019-03-25T20:47:31.124Z,101533.94
2019-03-25T20:49:59.740Z,101532.95
2019-03-25T20:52:28.537Z,101547.29
2019-03-25T20:54:56.994Z,101549.66
2019-03-25T20:57:25.387Z,101552.40
2019-03-25T20:59:54.034Z,101551.39
2019-03-25T21:02:22.475Z,101552.09
2019-03-25T21:04:51.246Z,101562.59
2019-03-25T21:07:19.793Z,101562.59
2019-03-25T21:09:48.203Z,101559.36
2019-03-25T21:12:17.365Z,101572.79
2019-03-25T21:14:45.776Z,101576.08
2019-03-25T21:17:14.829Z,101569.47
2019-03-25T21:19:43.404Z,101574.48
2019-03-25T21:22:11.964Z,101573.79
2019-03-25T21:24:40.612Z,101578.86
2019-03-25T21:27:09.036Z,101581.20
2019-03-25T21:29:37.809Z,101579.92
2019-03-25T21:32:07.103Z,101587.49
2019-03-25T21:34:35.826Z,101589.02
2019-03-25T21:37:05.680Z,101587.70
2019-03-25T21:39:34.455Z,101591.89
2019-03-25T21:42:02.948Z,101589.19
2019-03-25T21:44:31.517Z,101600.60
2019-03-25T21:47:00.077Z,101604.46
2019-03-25T21:49:28.461Z,101610.13
2019-03-25T21:51:57.363Z,101612.67
2019-03-25T21:54:26.518Z,101610.59
2019-03-25T21:56:55.057Z,101618.27
2019-03-25T21:59:23.702Z,101630.16
2019-03-25T22:01:52.296Z,101628.87
2019-03-25T22:04:20.828Z,101629.38
2019-03-25T22:06:49.383Z,101629.19
2019-03-25T22:09:17.948Z,101634.62
2019-03-25T22:11:46.454Z,101634.11
2019-03-25T22:14:15.058Z,101639.36
2019-03-25T22:16:43.592Z,101645.77
2019-03-25T22:19:12.085Z,101644.08
2019-03-25T22:21:40.698Z,101643.70
2019-03-25T22:24:09.433Z,101650.30
2019-03-25T22:26:38.415Z,101655.64
2019-03-25T22:29:07.001Z,101651.36
2019-03-25T22:31:35.502Z,101649.29
2019-03-25T22:34:04.054Z,101659.22
2019-03-25T22:36:32.620Z,101659.72
2019-03-25T22:39:01.112Z,101663.23
2019-03-25T22:41:29.683Z,101659.75
2019-03-25T22:43:58.303Z,101659.84
2019-03-25T22:46:26.704Z,101658.08
2019-03-25T22:48:55.504Z,101659.94
2019-03-25T22:51:23.901Z,101663.87
2019-03-25T22:53:52.403Z,101666.52
2019-03-25T22:56:20.999Z,101666.20
2019-03-25T22:58:49.504Z,101671.57
2019-03-25T23:01:18.083Z,101674.23
2019-03-25T23:03:46.643Z,101674.14
2019-03-25T23:06:15.291Z,101677.54
2019-03-25T23:08:43.945Z,101681.69
2019-03-25T23:11:12.421Z,101684.23
2019-03-25T23:13:41.299Z,101696.74
2019-03-25T23:16:09.792Z,101697.28
2019-03-25T23:18:38.696Z,101701.14
2019-03-25T23:21:08.005Z,101697.47
2019-03-25T23:23:37.085Z,101703.76
2019-03-25T23:26:05.552Z,101705.48
2019-03-25T23:28:34.034Z,101706.05
2019-03-25T23:31:02.404Z,101703.84
2019-03-25T23:33:30.891Z,101701.62
2019-03-25T23:35:59.586Z,101701.92
2019-03-25T23:38:28.347Z,101711.73
2019-03-25T23:40:56.729Z,101712.36
2019-03-25T23:43:25.453Z,101708.13
2019-03-25T23:45:54.309Z,101708.88
2019-03-25T23:48:23.221Z,101704.34
2019-03-25T23:50:52.242Z,101707.84
2019-03-25T23:53:21.238Z,101715.28
2019-03-25T23:55:50.154Z,101714.91
2019-03-25T23:58:19.080Z,101725.28
